sensor_id;sensor_type;location;lat;lon;timestamp;P1;durP1;ratioP1;P2;durP2;ratioP2
51927;SDS011;37953;52.806;18.270;2023-05-07T00:01:22;15.85;;;6.90;;
51927;SDS011;37953;52.806;18.270;2023-05-07T00:03:48;16.08;;;7.43;;
51927;SDS011;37953;52.806;18.270;2023-05-07T00:06:14;17.48;;;7.63;;
51927;SDS011;37953;52.806;18.270;2023-05-07T00:08:40;18.30;;;7.90;;
51927;SDS011;37953;52.806;18.270;2023-05-07T00:11:06;22.92;;;7.78;;
51927;SDS011;37953;52.806;18.270;2023-05-07T00:13:32;20.90;;;7.43;;
51927;SDS011;37953;52.806;18.270;2023-05-07T00:16:03;23.65;;;8.18;;
51927;SDS011;37953;52.806;18.270;2023-05-07T00:18:30;18.67;;;7.68;;
51927;SDS011;37953;52.806;18.270;2023-05-07T00:20:56;19.95;;;8.30;;
51927;SDS011;37953;52.806;18.270;2023-05-07T00:23:22;15.88;;;7.80;;
51927;SDS011;37953;52.806;18.270;2023-05-07T00:25:48;21.33;;;8.18;;
51927;SDS011;37953;52.806;18.270;2023-05-07T00:28:14;16.85;;;8.10;;
51927;SDS011;37953;52.806;18.270;2023-05-07T00:30:40;19.45;;;7.97;;
51927;SDS011;37953;52.806;18.270;2023-05-07T00:33:06;25.33;;;8.77;;
51927;SDS011;37953;52.806;18.270;2023-05-07T00:35:32;18.42;;;8.50;;
51927;SDS011;37953;52.806;18.270;2023-05-07T00:37:58;20.98;;;8.45;;
51927;SDS011;37953;52.806;18.270;2023-05-07T00:40:23;25.60;;;8.63;;
51927;SDS011;37953;52.806;18.270;2023-05-07T00:42:50;21.83;;;7.82;;
51927;SDS011;37953;52.806;18.270;2023-05-07T00:45:16;19.15;;;7.60;;
51927;SDS011;37953;52.806;18.270;2023-05-07T00:47:42;15.27;;;7.40;;
51927;SDS011;37953;52.806;18.270;2023-05-07T00:50:09;17.95;;;7.47;;
51927;SDS011;37953;52.806;18.270;2023-05-07T00:52:38;23.48;;;8.05;;
51927;SDS011;37953;52.806;18.270;2023-05-07T00:55:05;23.55;;;8.27;;
51927;SDS011;37953;52.806;18.270;2023-05-07T00:57:33;18.77;;;6.90;;
51927;SDS011;37953;52.806;18.270;2023-05-07T01:00:05;19.23;;;7.50;;
51927;SDS011;37953;52.806;18.270;2023-05-07T01:02:34;20.75;;;7.45;;
51927;SDS011;37953;52.806;18.270;2023-05-07T01:05:01;19.52;;;8.20;;
51927;SDS011;37953;52.806;18.270;2023-05-07T01:07:34;19.02;;;7.72;;
51927;SDS011;37953;52.806;18.270;2023-05-07T01:10:02;16.40;;;7.35;;
51927;SDS011;37953;52.806;18.270;2023-05-07T01:12:35;18.40;;;7.88;;
51927;SDS011;37953;52.806;18.270;2023-05-07T01:15:03;16.17;;;7.60;;
51927;SDS011;37953;52.806;18.270;2023-05-07T01:17:34;15.77;;;7.35;;
51927;SDS011;37953;52.806;18.270;2023-05-07T01:20:01;15.02;;;7.20;;
51927;SDS011;37953;52.806;18.270;2023-05-07T01:22:30;14.00;;;7.30;;
51927;SDS011;37953;52.806;18.270;2023-05-07T01:25:02;17.50;;;6.78;;
51927;SDS011;37953;52.806;18.270;2023-05-07T01:27:29;21.33;;;7.60;;
51927;SDS011;37953;52.806;18.270;2023-05-07T01:29:55;16.67;;;7.28;;
51927;SDS011;37953;52.806;18.270;2023-05-07T01:32:23;17.85;;;6.75;;
51927;SDS011;37953;52.806;18.270;2023-05-07T01:35:00;18.42;;;7.03;;
51927;SDS011;37953;52.806;18.270;2023-05-07T01:37:28;16.33;;;6.90;;
51927;SDS011;37953;52.806;18.270;2023-05-07T01:39:54;14.80;;;7.05;;
51927;SDS011;37953;52.806;18.270;2023-05-07T01:42:21;17.83;;;7.25;;
51927;SDS011;37953;52.806;18.270;2023-05-07T01:44:47;20.17;;;7.50;;
51927;SDS011;37953;52.806;18.270;2023-05-07T01:47:13;15.23;;;7.28;;
51927;SDS011;37953;52.806;18.270;2023-05-07T01:49:40;16.00;;;7.50;;
51927;SDS011;37953;52.806;18.270;2023-05-07T01:52:07;16.10;;;6.78;;
51927;SDS011;37953;52.806;18.270;2023-05-07T01:54:33;18.00;;;7.30;;
51927;SDS011;37953;52.806;18.270;2023-05-07T01:57:00;15.70;;;6.72;;
51927;SDS011;37953;52.806;18.270;2023-05-07T01:59:25;18.58;;;7.30;;
51927;SDS011;37953;52.806;18.270;2023-05-07T02:01:51;15.98;;;6.80;;
51927;SDS011;37953;52.806;18.270;2023-05-07T02:04:17;21.50;;;6.78;;
51927;SDS011;37953;52.806;18.270;2023-05-07T02:06:43;18.27;;;6.13;;
51927;SDS011;37953;52.806;18.270;2023-05-07T02:09:10;14.60;;;6.50;;
51927;SDS011;37953;52.806;18.270;2023-05-07T02:11:37;18.10;;;6.38;;
51927;SDS011;37953;52.806;18.270;2023-05-07T02:14:03;19.48;;;6.97;;
51927;SDS011;37953;52.806;18.270;2023-05-07T02:16:29;17.42;;;6.47;;
51927;SDS011;37953;52.806;18.270;2023-05-07T02:18:55;13.50;;;6.00;;
51927;SDS011;37953;52.806;18.270;2023-05-07T02:21:22;15.50;;;6.43;;
51927;SDS011;37953;52.806;18.270;2023-05-07T02:23:47;16.83;;;6.13;;
51927;SDS011;37953;52.806;18.270;2023-05-07T02:26:13;15.25;;;6.32;;
51927;SDS011;37953;52.806;18.270;2023-05-07T02:28:39;16.70;;;6.35;;
51927;SDS011;37953;52.806;18.270;2023-05-07T02:31:05;17.90;;;6.15;;
51927;SDS011;37953;52.806;18.270;2023-05-07T02:33:31;15.18;;;5.78;;
51927;SDS011;37953;52.806;18.270;2023-05-07T02:36:04;13.75;;;5.45;;
51927;SDS011;37953;52.806;18.270;2023-05-07T02:38:34;22.92;;;6.05;;
51927;SDS011;37953;52.806;18.270;2023-05-07T02:41:00;13.32;;;5.93;;
51927;SDS011;37953;52.806;18.270;2023-05-07T02:43:26;13.55;;;5.75;;
51927;SDS011;37953;52.806;18.270;2023-05-07T02:46:05;18.98;;;5.97;;
51927;SDS011;37953;52.806;18.270;2023-05-07T02:50:59;15.90;;;5.72;;
51927;SDS011;37953;52.806;18.270;2023-05-07T02:53:32;14.40;;;5.57;;
51927;SDS011;37953;52.806;18.270;2023-05-07T02:55:58;15.77;;;5.55;;
51927;SDS011;37953;52.806;18.270;2023-05-07T02:58:25;17.30;;;6.25;;
51927;SDS011;37953;52.806;18.270;2023-05-07T03:00:51;15.10;;;6.07;;
51927;SDS011;37953;52.806;18.270;2023-05-07T03:03:18;14.88;;;5.78;;
51927;SDS011;37953;52.806;18.270;2023-05-07T03:05:44;12.05;;;6.05;;
51927;SDS011;37953;52.806;18.270;2023-05-07T03:08:10;16.10;;;6.30;;
51927;SDS011;37953;52.806;18.270;2023-05-07T03:10:36;17.38;;;6.28;;
51927;SDS011;37953;52.806;18.270;2023-05-07T03:13:02;15.07;;;5.57;;
51927;SDS011;37953;52.806;18.270;2023-05-07T03:15:29;15.20;;;6.07;;
51927;SDS011;37953;52.806;18.270;2023-05-07T03:17:55;19.13;;;6.28;;
51927;SDS011;37953;52.806;18.270;2023-05-07T03:20:25;16.27;;;5.82;;
51927;SDS011;37953;52.806;18.270;2023-05-07T03:22:50;13.18;;;5.50;;
51927;SDS011;37953;52.806;18.270;2023-05-07T03:25:16;16.35;;;6.13;;
51927;SDS011;37953;52.806;18.270;2023-05-07T03:27:42;15.80;;;5.80;;
51927;SDS011;37953;52.806;18.270;2023-05-07T03:30:09;14.65;;;5.90;;
51927;SDS011;37953;52.806;18.270;2023-05-07T03:32:35;14.57;;;5.72;;
51927;SDS011;37953;52.806;18.270;2023-05-07T03:35:01;19.45;;;6.43;;
51927;SDS011;37953;52.806;18.270;2023-05-07T03:37:27;16.08;;;6.43;;
51927;SDS011;37953;52.806;18.270;2023-05-07T03:39:53;19.52;;;6.32;;
51927;SDS011;37953;52.806;18.270;2023-05-07T03:42:19;17.20;;;6.28;;
51927;SDS011;37953;52.806;18.270;2023-05-07T03:44:45;20.00;;;6.15;;
51927;SDS011;37953;52.806;18.270;2023-05-07T03:47:11;17.70;;;5.93;;
51927;SDS011;37953;52.806;18.270;2023-05-07T03:49:39;19.17;;;6.55;;
51927;SDS011;37953;52.806;18.270;2023-05-07T03:52:05;19.60;;;6.47;;
51927;SDS011;37953;52.806;18.270;2023-05-07T03:54:31;19.05;;;6.05;;
51927;SDS011;37953;52.806;18.270;2023-05-07T03:56:57;14.52;;;5.63;;
51927;SDS011;37953;52.806;18.270;2023-05-07T03:59:23;18.80;;;6.00;;
51927;SDS011;37953;52.806;18.270;2023-05-07T04:01:49;21.15;;;6.03;;
51927;SDS011;37953;52.806;18.270;2023-05-07T04:04:15;21.73;;;6.88;;
51927;SDS011;37953;52.806;18.270;2023-05-07T04:06:47;26.48;;;9.27;;
51927;SDS011;37953;52.806;18.270;2023-05-07T04:09:13;32.00;;;11.32;;
51927;SDS011;37953;52.806;18.270;2023-05-07T04:11:39;36.50;;;12.85;;
51927;SDS011;37953;52.806;18.270;2023-05-07T04:14:05;26.20;;;11.73;;
51927;SDS011;37953;52.806;18.270;2023-05-07T04:16:31;47.90;;;16.70;;
51927;SDS011;37953;52.806;18.270;2023-05-07T04:18:57;54.30;;;23.60;;
51927;SDS011;37953;52.806;18.270;2023-05-07T04:21:23;49.42;;;23.33;;
51927;SDS011;37953;52.806;18.270;2023-05-07T04:23:49;91.20;;;41.72;;
51927;SDS011;37953;52.806;18.270;2023-05-07T04:26:15;96.25;;;43.95;;
51927;SDS011;37953;52.806;18.270;2023-05-07T04:28:41;54.72;;;26.83;;
51927;SDS011;37953;52.806;18.270;2023-05-07T04:31:07;45.95;;;19.42;;
51927;SDS011;37953;52.806;18.270;2023-05-07T04:33:33;31.00;;;12.48;;
51927;SDS011;37953;52.806;18.270;2023-05-07T04:36:03;24.85;;;10.55;;
51927;SDS011;37953;52.806;18.270;2023-05-07T04:38:30;33.10;;;10.25;;
51927;SDS011;37953;52.806;18.270;2023-05-07T04:41:08;33.15;;;11.75;;
51927;SDS011;37953;52.806;18.270;2023-05-07T04:43:34;30.55;;;9.30;;
51927;SDS011;37953;52.806;18.270;2023-05-07T04:46:00;22.38;;;8.35;;
51927;SDS011;37953;52.806;18.270;2023-05-07T04:48:26;23.88;;;7.75;;
51927;SDS011;37953;52.806;18.270;2023-05-07T04:50:52;24.67;;;8.70;;
51927;SDS011;37953;52.806;18.270;2023-05-07T04:53:18;20.02;;;7.25;;
51927;SDS011;37953;52.806;18.270;2023-05-07T04:55:44;21.40;;;6.90;;
51927;SDS011;37953;52.806;18.270;2023-05-07T04:58:11;23.77;;;8.23;;
51927;SDS011;37953;52.806;18.270;2023-05-07T05:00:37;23.88;;;8.18;;
51927;SDS011;37953;52.806;18.270;2023-05-07T05:03:10;25.13;;;8.93;;
51927;SDS011;37953;52.806;18.270;2023-05-07T05:05:36;23.20;;;8.38;;
51927;SDS011;37953;52.806;18.270;2023-05-07T05:08:02;21.77;;;7.60;;
51927;SDS011;37953;52.806;18.270;2023-05-07T05:10:28;17.15;;;5.97;;
51927;SDS011;37953;52.806;18.270;2023-05-07T05:12:54;13.30;;;5.25;;
51927;SDS011;37953;52.806;18.270;2023-05-07T05:15:20;13.45;;;5.28;;
51927;SDS011;37953;52.806;18.270;2023-05-07T05:17:46;19.98;;;5.53;;
51927;SDS011;37953;52.806;18.270;2023-05-07T05:20:12;12.98;;;5.28;;
51927;SDS011;37953;52.806;18.270;2023-05-07T05:22:38;14.50;;;4.90;;
51927;SDS011;37953;52.806;18.270;2023-05-07T05:25:04;14.55;;;4.65;;
51927;SDS011;37953;52.806;18.270;2023-05-07T05:27:31;10.98;;;4.63;;
51927;SDS011;37953;52.806;18.270;2023-05-07T05:29:56;14.75;;;4.82;;
51927;SDS011;37953;52.806;18.270;2023-05-07T05:32:22;16.52;;;4.93;;
51927;SDS011;37953;52.806;18.270;2023-05-07T05:34:48;15.60;;;4.70;;
51927;SDS011;37953;52.806;18.270;2023-05-07T05:37:14;12.45;;;4.28;;
51927;SDS011;37953;52.806;18.270;2023-05-07T05:39:40;10.63;;;4.28;;
51927;SDS011;37953;52.806;18.270;2023-05-07T05:42:07;15.88;;;4.57;;
51927;SDS011;37953;52.806;18.270;2023-05-07T05:44:33;16.23;;;4.05;;
51927;SDS011;37953;52.806;18.270;2023-05-07T05:46:59;10.98;;;4.25;;
51927;SDS011;37953;52.806;18.270;2023-05-07T05:49:25;11.52;;;3.63;;
51927;SDS011;37953;52.806;18.270;2023-05-07T05:51:52;11.95;;;3.97;;
51927;SDS011;37953;52.806;18.270;2023-05-07T05:54:17;13.05;;;4.00;;
51927;SDS011;37953;52.806;18.270;2023-05-07T05:56:43;8.93;;;4.00;;
51927;SDS011;37953;52.806;18.270;2023-05-07T05:59:09;9.40;;;3.78;;
51927;SDS011;37953;52.806;18.270;2023-05-07T06:01:36;6.57;;;3.70;;
51927;SDS011;37953;52.806;18.270;2023-05-07T06:04:02;15.38;;;4.22;;
51927;SDS011;37953;52.806;18.270;2023-05-07T06:06:28;14.15;;;3.88;;
51927;SDS011;37953;52.806;18.270;2023-05-07T06:08:54;16.85;;;4.45;;
51927;SDS011;37953;52.806;18.270;2023-05-07T06:11:20;9.23;;;3.65;;
51927;SDS011;37953;52.806;18.270;2023-05-07T06:13:46;10.70;;;3.95;;
51927;SDS011;37953;52.806;18.270;2023-05-07T06:16:12;15.43;;;3.63;;
51927;SDS011;37953;52.806;18.270;2023-05-07T06:18:40;11.15;;;3.42;;
51927;SDS011;37953;52.806;18.270;2023-05-07T06:21:06;7.75;;;4.15;;
51927;SDS011;37953;52.806;18.270;2023-05-07T06:23:32;7.43;;;3.30;;
51927;SDS011;37953;52.806;18.270;2023-05-07T06:25:58;10.68;;;3.97;;
51927;SDS011;37953;52.806;18.270;2023-05-07T06:28:24;17.02;;;3.53;;
51927;SDS011;37953;52.806;18.270;2023-05-07T06:30:50;10.15;;;3.40;;
51927;SDS011;37953;52.806;18.270;2023-05-07T06:33:16;7.78;;;2.92;;
51927;SDS011;37953;52.806;18.270;2023-05-07T06:35:44;7.57;;;2.92;;
51927;SDS011;37953;52.806;18.270;2023-05-07T06:38:10;5.95;;;2.65;;
51927;SDS011;37953;52.806;18.270;2023-05-07T06:40:37;16.33;;;3.58;;
51927;SDS011;37953;52.806;18.270;2023-05-07T06:43:03;11.00;;;3.10;;
51927;SDS011;37953;52.806;18.270;2023-05-07T06:45:29;15.68;;;3.33;;
51927;SDS011;37953;52.806;18.270;2023-05-07T06:47:55;19.38;;;3.35;;
51927;SDS011;37953;52.806;18.270;2023-05-07T06:50:21;11.60;;;3.40;;
51927;SDS011;37953;52.806;18.270;2023-05-07T06:52:47;9.27;;;2.95;;
51927;SDS011;37953;52.806;18.270;2023-05-07T06:55:13;8.38;;;3.00;;
51927;SDS011;37953;52.806;18.270;2023-05-07T06:57:39;8.75;;;3.22;;
51927;SDS011;37953;52.806;18.270;2023-05-07T07:00:05;14.38;;;3.53;;
51927;SDS011;37953;52.806;18.270;2023-05-07T07:02:36;13.88;;;3.53;;
51927;SDS011;37953;52.806;18.270;2023-05-07T07:05:02;18.23;;;3.33;;
51927;SDS011;37953;52.806;18.270;2023-05-07T07:07:28;8.18;;;3.08;;
51927;SDS011;37953;52.806;18.270;2023-05-07T07:09:54;11.45;;;4.13;;
51927;SDS011;37953;52.806;18.270;2023-05-07T07:12:20;9.82;;;3.42;;
51927;SDS011;37953;52.806;18.270;2023-05-07T07:14:48;12.48;;;3.10;;
51927;SDS011;37953;52.806;18.270;2023-05-07T07:17:14;16.80;;;3.40;;
51927;SDS011;37953;52.806;18.270;2023-05-07T07:19:40;7.38;;;2.78;;
51927;SDS011;37953;52.806;18.270;2023-05-07T07:22:05;10.38;;;3.13;;
51927;SDS011;37953;52.806;18.270;2023-05-07T07:24:31;8.88;;;3.00;;
51927;SDS011;37953;52.806;18.270;2023-05-07T07:26:57;11.65;;;3.17;;
51927;SDS011;37953;52.806;18.270;2023-05-07T07:29:23;8.20;;;3.25;;
51927;SDS011;37953;52.806;18.270;2023-05-07T07:31:55;12.07;;;3.63;;
51927;SDS011;37953;52.806;18.270;2023-05-07T07:34:24;12.00;;;3.03;;
51927;SDS011;37953;52.806;18.270;2023-05-07T07:36:50;14.55;;;3.47;;
51927;SDS011;37953;52.806;18.270;2023-05-07T07:39:16;11.95;;;3.60;;
51927;SDS011;37953;52.806;18.270;2023-05-07T07:41:42;9.45;;;3.40;;
51927;SDS011;37953;52.806;18.270;2023-05-07T07:44:08;9.25;;;3.10;;
51927;SDS011;37953;52.806;18.270;2023-05-07T07:46:38;15.95;;;3.53;;
51927;SDS011;37953;52.806;18.270;2023-05-07T07:49:04;26.70;;;9.05;;
51927;SDS011;37953;52.806;18.270;2023-05-07T07:51:30;41.67;;;17.30;;
51927;SDS011;37953;52.806;18.270;2023-05-07T07:53:56;51.75;;;17.00;;
51927;SDS011;37953;52.806;18.270;2023-05-07T07:56:23;25.98;;;10.43;;
51927;SDS011;37953;52.806;18.270;2023-05-07T07:58:49;28.02;;;9.00;;
51927;SDS011;37953;52.806;18.270;2023-05-07T08:01:15;21.30;;;7.50;;
51927;SDS011;37953;52.806;18.270;2023-05-07T08:03:42;17.73;;;5.82;;
51927;SDS011;37953;52.806;18.270;2023-05-07T08:06:08;8.85;;;4.13;;
51927;SDS011;37953;52.806;18.270;2023-05-07T08:08:34;17.30;;;4.75;;
51927;SDS011;37953;52.806;18.270;2023-05-07T08:11:00;17.15;;;4.15;;
51927;SDS011;37953;52.806;18.270;2023-05-07T08:13:26;25.75;;;4.28;;
51927;SDS011;37953;52.806;18.270;2023-05-07T08:15:52;10.43;;;3.83;;
51927;SDS011;37953;52.806;18.270;2023-05-07T08:18:18;19.73;;;5.22;;
51927;SDS011;37953;52.806;18.270;2023-05-07T08:20:44;56.42;;;24.88;;
51927;SDS011;37953;52.806;18.270;2023-05-07T08:23:10;30.08;;;10.50;;
51927;SDS011;37953;52.806;18.270;2023-05-07T08:25:36;21.15;;;5.78;;
51927;SDS011;37953;52.806;18.270;2023-05-07T08:28:03;14.15;;;4.38;;
51927;SDS011;37953;52.806;18.270;2023-05-07T08:30:28;14.55;;;4.38;;
51927;SDS011;37953;52.806;18.270;2023-05-07T08:32:54;15.07;;;4.78;;
51927;SDS011;37953;52.806;18.270;2023-05-07T08:35:20;8.18;;;3.38;;
51927;SDS011;37953;52.806;18.270;2023-05-07T08:37:46;12.25;;;3.72;;
51927;SDS011;37953;52.806;18.270;2023-05-07T08:40:12;12.25;;;3.45;;
51927;SDS011;37953;52.806;18.270;2023-05-07T08:42:38;19.00;;;3.50;;
51927;SDS011;37953;52.806;18.270;2023-05-07T08:45:11;13.68;;;3.10;;
51927;SDS011;37953;52.806;18.270;2023-05-07T08:47:47;9.73;;;3.00;;
51927;SDS011;37953;52.806;18.270;2023-05-07T08:50:18;12.70;;;3.30;;
51927;SDS011;37953;52.806;18.270;2023-05-07T08:52:45;10.23;;;2.88;;
51927;SDS011;37953;52.806;18.270;2023-05-07T08:55:12;10.68;;;2.97;;
51927;SDS011;37953;52.806;18.270;2023-05-07T08:57:38;11.50;;;2.65;;
51927;SDS011;37953;52.806;18.270;2023-05-07T09:00:04;14.80;;;2.88;;
51927;SDS011;37953;52.806;18.270;2023-05-07T09:02:33;9.07;;;2.70;;
51927;SDS011;37953;52.806;18.270;2023-05-07T09:05:05;12.02;;;2.90;;
51927;SDS011;37953;52.806;18.270;2023-05-07T09:07:32;8.38;;;2.78;;
51927;SDS011;37953;52.806;18.270;2023-05-07T09:09:57;8.52;;;2.50;;
51927;SDS011;37953;52.806;18.270;2023-05-07T09:12:24;8.43;;;2.65;;
51927;SDS011;37953;52.806;18.270;2023-05-07T09:14:50;8.18;;;2.53;;
51927;SDS011;37953;52.806;18.270;2023-05-07T09:17:16;9.32;;;2.42;;
51927;SDS011;37953;52.806;18.270;2023-05-07T09:19:43;7.90;;;2.35;;
51927;SDS011;37953;52.806;18.270;2023-05-07T09:22:11;9.52;;;2.40;;
51927;SDS011;37953;52.806;18.270;2023-05-07T09:24:40;7.70;;;2.40;;
51927;SDS011;37953;52.806;18.270;2023-05-07T09:27:06;7.03;;;2.25;;
51927;SDS011;37953;52.806;18.270;2023-05-07T09:29:35;9.65;;;2.80;;
51927;SDS011;37953;52.806;18.270;2023-05-07T09:32:02;9.50;;;2.58;;
51927;SDS011;37953;52.806;18.270;2023-05-07T09:34:29;9.80;;;2.30;;
51927;SDS011;37953;52.806;18.270;2023-05-07T09:36:56;8.82;;;2.53;;
51927;SDS011;37953;52.806;18.270;2023-05-07T09:39:45;12.70;;;2.90;;
51927;SDS011;37953;52.806;18.270;2023-05-07T09:42:13;13.77;;;2.58;;
51927;SDS011;37953;52.806;18.270;2023-05-07T09:44:45;10.32;;;2.67;;
51927;SDS011;37953;52.806;18.270;2023-05-07T09:47:12;15.02;;;3.72;;
51927;SDS011;37953;52.806;18.270;2023-05-07T09:49:46;7.97;;;2.75;;
51927;SDS011;37953;52.806;18.270;2023-05-07T09:52:13;9.13;;;2.67;;
51927;SDS011;37953;52.806;18.270;2023-05-07T09:54:40;11.20;;;2.72;;
51927;SDS011;37953;52.806;18.270;2023-05-07T09:57:12;11.60;;;2.78;;
51927;SDS011;37953;52.806;18.270;2023-05-07T09:59:39;8.85;;;2.20;;
51927;SDS011;37953;52.806;18.270;2023-05-07T10:02:10;10.00;;;2.28;;
51927;SDS011;37953;52.806;18.270;2023-05-07T10:04:38;9.43;;;2.45;;
51927;SDS011;37953;52.806;18.270;2023-05-07T10:07:05;13.23;;;2.40;;
51927;SDS011;37953;52.806;18.270;2023-05-07T10:09:33;11.25;;;2.58;;
51927;SDS011;37953;52.806;18.270;2023-05-07T10:12:04;10.20;;;2.97;;
51927;SDS011;37953;52.806;18.270;2023-05-07T10:14:31;8.98;;;2.88;;
51927;SDS011;37953;52.806;18.270;2023-05-07T10:16:57;13.02;;;3.08;;
51927;SDS011;37953;52.806;18.270;2023-05-07T10:19:25;9.40;;;2.47;;
51927;SDS011;37953;52.806;18.270;2023-05-07T10:21:56;7.80;;;2.17;;
51927;SDS011;37953;52.806;18.270;2023-05-07T10:24:34;16.70;;;2.40;;
51927;SDS011;37953;52.806;18.270;2023-05-07T10:27:04;8.77;;;1.88;;
51927;SDS011;37953;52.806;18.270;2023-05-07T10:32:51;6.85;;;2.30;;
51927;SDS011;37953;52.806;18.270;2023-05-07T10:35:21;10.70;;;3.40;;
51927;SDS011;37953;52.806;18.270;2023-05-07T10:37:51;9.20;;;3.30;;
51927;SDS011;37953;52.806;18.270;2023-05-07T10:40:18;6.63;;;2.60;;
51927;SDS011;37953;52.806;18.270;2023-05-07T10:42:59;9.55;;;2.70;;
51927;SDS011;37953;52.806;18.270;2023-05-07T10:45:32;17.40;;;4.22;;
51927;SDS011;37953;52.806;18.270;2023-05-07T10:53:47;11.23;;;3.72;;
51927;SDS011;37953;52.806;18.270;2023-05-07T11:01:57;7.65;;;2.28;;
51927;SDS011;37953;52.806;18.270;2023-05-07T11:04:29;9.02;;;2.70;;
51927;SDS011;37953;52.806;18.270;2023-05-07T11:15:10;8.93;;;2.03;;
51927;SDS011;37953;52.806;18.270;2023-05-07T11:23:12;12.73;;;2.10;;
51927;SDS011;37953;52.806;18.270;2023-05-07T11:26:07;6.40;;;1.80;;
51927;SDS011;37953;52.806;18.270;2023-05-07T11:28:38;12.93;;;2.67;;
51927;SDS011;37953;52.806;18.270;2023-05-07T11:31:08;7.60;;;2.00;;
51927;SDS011;37953;52.806;18.270;2023-05-07T11:33:35;6.00;;;2.00;;
51927;SDS011;37953;52.806;18.270;2023-05-07T11:36:08;7.07;;;1.85;;
51927;SDS011;37953;52.806;18.270;2023-05-07T11:38:34;7.45;;;2.05;;
51927;SDS011;37953;52.806;18.270;2023-05-07T11:41:02;7.63;;;1.73;;
51927;SDS011;37953;52.806;18.270;2023-05-07T11:43:33;4.40;;;1.70;;
51927;SDS011;37953;52.806;18.270;2023-05-07T11:46:13;6.75;;;2.00;;
51927;SDS011;37953;52.806;18.270;2023-05-07T11:48:39;6.93;;;2.00;;
51927;SDS011;37953;52.806;18.270;2023-05-07T11:51:06;6.15;;;2.10;;
51927;SDS011;37953;52.806;18.270;2023-05-07T11:53:39;7.45;;;1.85;;
51927;SDS011;37953;52.806;18.270;2023-05-07T11:56:11;6.70;;;1.80;;
51927;SDS011;37953;52.806;18.270;2023-05-07T11:58:44;15.07;;;3.00;;
51927;SDS011;37953;52.806;18.270;2023-05-07T12:01:15;7.13;;;1.92;;
51927;SDS011;37953;52.806;18.270;2023-05-07T12:03:42;7.78;;;2.10;;
51927;SDS011;37953;52.806;18.270;2023-05-07T12:06:10;6.22;;;1.90;;
51927;SDS011;37953;52.806;18.270;2023-05-07T12:08:37;8.48;;;1.80;;
51927;SDS011;37953;52.806;18.270;2023-05-07T12:11:15;6.18;;;2.25;;
51927;SDS011;37953;52.806;18.270;2023-05-07T12:13:43;16.23;;;3.25;;
51927;SDS011;37953;52.806;18.270;2023-05-07T12:16:10;13.63;;;2.42;;
51927;SDS011;37953;52.806;18.270;2023-05-07T12:18:36;9.25;;;2.03;;
51927;SDS011;37953;52.806;18.270;2023-05-07T12:21:04;16.00;;;2.17;;
51927;SDS011;37953;52.806;18.270;2023-05-07T12:23:30;7.97;;;2.08;;
51927;SDS011;37953;52.806;18.270;2023-05-07T12:25:56;11.13;;;2.08;;
51927;SDS011;37953;52.806;18.270;2023-05-07T12:28:22;10.63;;;2.17;;
51927;SDS011;37953;52.806;18.270;2023-05-07T12:30:50;9.25;;;1.80;;
51927;SDS011;37953;52.806;18.270;2023-05-07T12:33:17;10.15;;;1.95;;
51927;SDS011;37953;52.806;18.270;2023-05-07T12:35:47;8.90;;;1.75;;
51927;SDS011;37953;52.806;18.270;2023-05-07T12:38:13;8.90;;;1.88;;
51927;SDS011;37953;52.806;18.270;2023-05-07T12:40:45;8.80;;;1.83;;
51927;SDS011;37953;52.806;18.270;2023-05-07T12:43:24;10.18;;;1.95;;
51927;SDS011;37953;52.806;18.270;2023-05-07T12:45:51;9.20;;;2.20;;
51927;SDS011;37953;52.806;18.270;2023-05-07T12:48:20;10.57;;;2.13;;
51927;SDS011;37953;52.806;18.270;2023-05-07T12:50:50;13.38;;;1.98;;
51927;SDS011;37953;52.806;18.270;2023-05-07T12:55:46;7.20;;;2.17;;
51927;SDS011;37953;52.806;18.270;2023-05-07T12:58:14;8.90;;;1.92;;
51927;SDS011;37953;52.806;18.270;2023-05-07T13:00:49;11.10;;;1.95;;
51927;SDS011;37953;52.806;18.270;2023-05-07T13:03:28;9.02;;;1.83;;
51927;SDS011;37953;52.806;18.270;2023-05-07T13:08:34;10.85;;;1.90;;
51927;SDS011;37953;52.806;18.270;2023-05-07T13:11:03;9.35;;;1.95;;
51927;SDS011;37953;52.806;18.270;2023-05-07T13:13:36;13.30;;;2.28;;
51927;SDS011;37953;52.806;18.270;2023-05-07T13:16:04;10.07;;;2.08;;
51927;SDS011;37953;52.806;18.270;2023-05-07T13:18:32;11.70;;;1.98;;
51927;SDS011;37953;52.806;18.270;2023-05-07T13:21:00;7.35;;;1.73;;
51927;SDS011;37953;52.806;18.270;2023-05-07T13:23:26;8.70;;;1.77;;
51927;SDS011;37953;52.806;18.270;2023-05-07T13:25:53;9.38;;;1.85;;
51927;SDS011;37953;52.806;18.270;2023-05-07T13:28:19;9.93;;;1.80;;
51927;SDS011;37953;52.806;18.270;2023-05-07T13:30:46;8.60;;;1.73;;
51927;SDS011;37953;52.806;18.270;2023-05-07T13:33:12;8.15;;;1.67;;
51927;SDS011;37953;52.806;18.270;2023-05-07T13:35:38;8.13;;;1.45;;
51927;SDS011;37953;52.806;18.270;2023-05-07T13:38:04;9.13;;;1.85;;
51927;SDS011;37953;52.806;18.270;2023-05-07T13:40:31;11.15;;;1.70;;
51927;SDS011;37953;52.806;18.270;2023-05-07T13:42:57;10.55;;;1.77;;
51927;SDS011;37953;52.806;18.270;2023-05-07T13:45:26;14.20;;;1.80;;
51927;SDS011;37953;52.806;18.270;2023-05-07T13:47:54;16.13;;;2.20;;
51927;SDS011;37953;52.806;18.270;2023-05-07T13:50:21;15.10;;;1.73;;
51927;SDS011;37953;52.806;18.270;2023-05-07T13:52:47;12.50;;;1.88;;
51927;SDS011;37953;52.806;18.270;2023-05-07T13:55:17;20.27;;;1.95;;
51927;SDS011;37953;52.806;18.270;2023-05-07T13:57:44;9.60;;;1.77;;
51927;SDS011;37953;52.806;18.270;2023-05-07T14:00:10;9.32;;;1.77;;
51927;SDS011;37953;52.806;18.270;2023-05-07T14:02:37;13.00;;;2.05;;
51927;SDS011;37953;52.806;18.270;2023-05-07T14:05:18;10.73;;;1.90;;
51927;SDS011;37953;52.806;18.270;2023-05-07T14:07:44;12.40;;;1.70;;
51927;SDS011;37953;52.806;18.270;2023-05-07T14:10:10;9.00;;;2.00;;
51927;SDS011;37953;52.806;18.270;2023-05-07T14:12:43;10.98;;;2.30;;
51927;SDS011;37953;52.806;18.270;2023-05-07T14:15:10;13.15;;;2.20;;
51927;SDS011;37953;52.806;18.270;2023-05-07T14:17:36;10.85;;;2.20;;
51927;SDS011;37953;52.806;18.270;2023-05-07T14:20:02;20.50;;;1.85;;
51927;SDS011;37953;52.806;18.270;2023-05-07T14:22:29;9.82;;;1.95;;
51927;SDS011;37953;52.806;18.270;2023-05-07T14:24:55;7.07;;;1.60;;
51927;SDS011;37953;52.806;18.270;2023-05-07T14:27:21;12.32;;;1.80;;
51927;SDS011;37953;52.806;18.270;2023-05-07T14:29:47;9.20;;;2.05;;
51927;SDS011;37953;52.806;18.270;2023-05-07T14:32:19;10.55;;;1.70;;
51927;SDS011;37953;52.806;18.270;2023-05-07T14:34:45;10.48;;;1.83;;
51927;SDS011;37953;52.806;18.270;2023-05-07T14:37:12;13.70;;;1.98;;
51927;SDS011;37953;52.806;18.270;2023-05-07T14:39:38;8.70;;;1.80;;
51927;SDS011;37953;52.806;18.270;2023-05-07T14:42:06;7.60;;;1.70;;
51927;SDS011;37953;52.806;18.270;2023-05-07T14:44:34;11.65;;;1.77;;
51927;SDS011;37953;52.806;18.270;2023-05-07T14:47:01;9.60;;;2.00;;
51927;SDS011;37953;52.806;18.270;2023-05-07T14:49:27;15.48;;;2.03;;
51927;SDS011;37953;52.806;18.270;2023-05-07T14:51:57;14.77;;;1.92;;
51927;SDS011;37953;52.806;18.270;2023-05-07T14:54:23;11.55;;;1.92;;
51927;SDS011;37953;52.806;18.270;2023-05-07T14:56:49;12.88;;;2.42;;
51927;SDS011;37953;52.806;18.270;2023-05-07T14:59:15;12.90;;;2.28;;
51927;SDS011;37953;52.806;18.270;2023-05-07T15:01:48;11.77;;;2.10;;